Time;durP1;ratioP1;P1;durP2;ratioP2;P2;SDS_P1;SDS_P2;PMS_P1;PMS_P2;Temp;Humidity;BMP_temperature;BMP_pressure;BME280_temperature;BME280_humidity;BME280_pressure;Samples;Min_cycle;Max_cycle;Signal;HPM_P1;HPM_P2
2021/12/23 00:01:51;;;;;;;16.67;11.07;;;;;;;;;;5065848;28;20589;-66
2021/12/23 00:04:17;;;;;;;19.52;11.02;;;;;;;;;;5068034;28;20163;-66
2021/12/23 00:06:46;;;;;;;15.15;11.10;;;;;;;;;;5071511;28;20062;-65
2021/12/23 00:09:13;;;;;;;15.32;10.63;;;;;;;;;;5068190;28;20036;-66
2021/12/23 00:11:39;;;;;;;17.63;10.98;;;;;;;;;;5076661;28;20047;-66
2021/12/23 00:14:08;;;;;;;17.48;11.40;;;;;;;;;;5068210;28;20393;-66
2021/12/23 00:23:20;;;;;;;22.27;10.38;;;;;;;;;;5070381;28;20132;-66
2021/12/23 00:24:46;;;;;;;21.15;11.77;;;;;;;;;;5078472;28;20048;-66
2021/12/23 00:27:14;;;;;;;14.15;9.60;;;;;;;;;;5070824;28;20397;-66
2021/12/23 00:29:41;;;;;;;17.48;11.55;;;;;;;;;;5085312;28;20155;-66
2021/12/23 00:32:08;;;;;;;16.15;11.15;;;;;;;;;;5068084;28;20040;-65
2021/12/23 00:34:38;;;;;;;12.88;9.55;;;;;;;;;;5059361;28;20039;-66
2021/12/23 00:37:09;;;;;;;21.08;11.60;;;;;;;;;;5069435;28;20293;-66
2021/12/23 00:39:35;;;;;;;16.55;10.63;;;;;;;;;;5068985;28;20044;-66
2021/12/23 00:42:07;;;;;;;16.20;11.10;;;;;;;;;;5070369;28;20470;-65
2021/12/23 00:44:34;;;;;;;17.08;11.02;;;;;;;;;;5054822;28;20417;-66
2021/12/23 00:47:01;;;;;;;18.20;9.93;;;;;;;;;;5067476;28;20432;-66
2021/12/23 00:49:27;;;;;;;20.85;12.05;;;;;;;;;;5067537;28;20048;-66
2021/12/23 00:51:54;;;;;;;21.30;10.85;;;;;;;;;;5067680;28;20048;-66
2021/12/23 00:54:20;;;;;;;19.58;11.35;;;;;;;;;;5102053;28;20032;-66
2021/12/23 00:56:49;;;;;;;17.20;10.82;;;;;;;;;;5070251;28;20490;-66
2021/12/23 00:59:15;;;;;;;16.35;11.30;;;;;;;;;;5068589;28;20108;-66
2021/12/23 01:01:42;;;;;;;15.60;10.55;;;;;;;;;;5050661;28;20048;-66
2021/12/23 01:04:08;;;;;;;18.20;11.15;;;;;;;;;;5069571;28;20076;-66
2021/12/23 01:06:34;;;;;;;15.52;10.55;;;;;;;;;;5050861;28;20454;-66
2021/12/23 01:09:00;;;;;;;22.30;11.73;;;;;;;;;;5064106;28;20068;-66
2021/12/23 01:11:27;;;;;;;20.23;11.60;;;;;;;;;;5092267;28;20351;-66
2021/12/23 01:19:25;;;;;;;16.20;10.45;;;;;;;;;;5070033;28;20044;-66
2021/12/23 01:21:51;;;;;;;18.92;10.05;;;;;;;;;;5069007;28;20040;-66
2021/12/23 01:24:18;;;;;;;16.90;11.75;;;;;;;;;;5067019;28;20552;-66
2021/12/23 01:26:44;;;;;;;17.42;11.32;;;;;;;;;;5069195;28;20094;-66
2021/12/23 01:29:10;;;;;;;16.58;10.18;;;;;;;;;;5070749;28;20064;-66
2021/12/23 01:31:38;;;;;;;16.65;11.23;;;;;;;;;;5080235;28;20502;-66
2021/12/23 01:34:05;;;;;;;17.15;10.27;;;;;;;;;;5068409;28;20041;-66
2021/12/23 01:36:31;;;;;;;19.25;11.02;;;;;;;;;;5065853;28;20048;-66
2021/12/23 01:38:57;;;;;;;15.80;9.88;;;;;;;;;;5067335;28;20033;-65
2021/12/23 01:41:24;;;;;;;16.73;10.68;;;;;;;;;;5068668;28;20059;-65
2021/12/23 01:43:51;;;;;;;16.83;10.00;;;;;;;;;;5067550;28;20040;-66
2021/12/23 01:46:19;;;;;;;20.55;10.90;;;;;;;;;;5069751;28;20080;-66
2021/12/23 01:48:45;;;;;;;16.23;11.13;;;;;;;;;;5066603;28;20051;-66
2021/12/23 01:51:11;;;;;;;18.27;10.25;;;;;;;;;;5062014;28;20056;-66
2021/12/23 01:53:37;;;;;;;16.42;9.07;;;;;;;;;;5067299;28;20439;-66
2021/12/23 01:56:04;;;;;;;18.17;11.30;;;;;;;;;;5069408;28;20475;-65
2021/12/23 01:58:30;;;;;;;17.65;10.55;;;;;;;;;;5068404;28;20045;-65
2021/12/23 02:00:56;;;;;;;16.27;10.43;;;;;;;;;;5068028;28;20048;-66
2021/12/23 02:03:22;;;;;;;18.15;11.23;;;;;;;;;;5064231;28;20076;-66
2021/12/23 02:05:49;;;;;;;17.90;11.63;;;;;;;;;;5067406;28;20044;-66
2021/12/23 02:08:15;;;;;;;16.20;9.98;;;;;;;;;;5062332;28;20136;-66
2021/12/23 02:10:43;;;;;;;18.02;10.93;;;;;;;;;;5064817;28;20050;-65
2021/12/23 02:13:10;;;;;;;17.27;10.15;;;;;;;;;;5063136;28;20041;-67
2021/12/23 02:15:38;;;;;;;16.42;10.73;;;;;;;;;;5065088;28;20471;-66
2021/12/23 02:18:04;;;;;;;15.68;10.20;;;;;;;;;;5058658;28;20052;-66
2021/12/23 02:20:32;;;;;;;16.10;9.40;;;;;;;;;;5066171;28;20202;-66
2021/12/23 02:22:59;;;;;;;15.85;9.77;;;;;;;;;;5068326;28;20097;-65
2021/12/23 02:25:25;;;;;;;19.10;10.82;;;;;;;;;;5063429;28;20051;-66
2021/12/23 02:27:52;;;;;;;17.08;9.90;;;;;;;;;;5066782;28;20117;-67
2021/12/23 02:30:22;;;;;;;17.08;9.65;;;;;;;;;;5062982;28;20092;-66
2021/12/23 02:32:49;;;;;;;15.90;10.02;;;;;;;;;;5077534;28;20083;-66
2021/12/23 02:35:16;;;;;;;17.15;10.95;;;;;;;;;;5066029;28;20040;-66
2021/12/23 02:37:43;;;;;;;14.50;10.95;;;;;;;;;;5068592;28;20036;-66
2021/12/23 02:40:10;;;;;;;18.33;10.73;;;;;;;;;;5066262;28;20481;-66
2021/12/23 02:42:37;;;;;;;17.48;12.63;;;;;;;;;;5094123;27;20052;-66
2021/12/23 02:45:09;;;;;;;14.85;9.77;;;;;;;;;;5067389;28;20044;-66
2021/12/23 02:47:35;;;;;;;19.92;12.20;;;;;;;;;;5089460;28;20060;-66
2021/12/23 02:50:01;;;;;;;17.45;11.60;;;;;;;;;;5063157;28;20045;-66
2021/12/23 02:52:27;;;;;;;16.92;10.32;;;;;;;;;;5066677;28;20105;-66
2021/12/23 02:54:54;;;;;;;20.23;12.13;;;;;;;;;;5066454;28;20111;-66
2021/12/23 02:57:20;;;;;;;18.73;11.13;;;;;;;;;;5068805;28;20052;-66
2021/12/23 02:59:46;;;;;;;19.63;11.80;;;;;;;;;;5066390;28;20052;-66
2021/12/23 03:02:12;;;;;;;16.33;10.73;;;;;;;;;;5064388;28;20035;-66
2021/12/23 03:04:39;;;;;;;18.10;11.52;;;;;;;;;;5064297;28;20144;-66
2021/12/23 03:07:05;;;;;;;16.17;10.73;;;;;;;;;;5065695;28;20553;-66
2021/12/23 03:09:31;;;;;;;15.25;11.43;;;;;;;;;;5066686;28;20170;-66
2021/12/23 03:11:57;;;;;;;17.60;10.88;;;;;;;;;;5064897;28;20037;-65
2021/12/23 03:14:23;;;;;;;13.02;8.80;;;;;;;;;;5065805;28;20045;-66
2021/12/23 03:16:49;;;;;;;14.90;10.07;;;;;;;;;;5057837;28;20032;-66
2021/12/23 03:19:16;;;;;;;17.23;12.23;;;;;;;;;;5066217;28;20037;-65
2021/12/23 03:21:44;;;;;;;18.27;11.10;;;;;;;;;;5065820;28;20155;-66
2021/12/23 03:24:11;;;;;;;15.88;12.52;;;;;;;;;;5068441;28;20040;-66
2021/12/23 03:26:38;;;;;;;17.30;11.95;;;;;;;;;;5066704;28;20036;-66
2021/12/23 03:29:07;;;;;;;17.65;11.90;;;;;;;;;;5065023;28;20045;-66
2021/12/23 03:31:34;;;;;;;17.83;11.73;;;;;;;;;;5063822;28;20044;-66
2021/12/23 03:34:00;;;;;;;16.98;10.30;;;;;;;;;;5069272;28;20145;-66
2021/12/23 03:36:26;;;;;;;18.42;10.95;;;;;;;;;;5071817;28;20497;-66
2021/12/23 03:38:52;;;;;;;15.77;11.30;;;;;;;;;;5074842;28;20493;-66
2021/12/23 03:41:18;;;;;;;17.95;11.43;;;;;;;;;;5070206;28;20390;-66
2021/12/23 03:43:44;;;;;;;15.18;10.13;;;;;;;;;;5073203;28;20098;-66
2021/12/23 03:46:11;;;;;;;17.20;11.15;;;;;;;;;;5075914;28;20079;-66
2021/12/23 03:48:37;;;;;;;19.52;10.85;;;;;;;;;;5073974;28;20098;-65
2021/12/23 03:51:03;;;;;;;18.83;11.50;;;;;;;;;;5071388;28;20273;-66
2021/12/23 03:53:29;;;;;;;15.07;11.63;;;;;;;;;;5074848;28;20033;-66
2021/12/23 03:55:56;;;;;;;23.33;12.57;;;;;;;;;;5055484;28;20500;-66
2021/12/23 03:58:22;;;;;;;16.73;11.43;;;;;;;;;;5073238;28;20042;-66
2021/12/23 04:00:48;;;;;;;16.13;10.82;;;;;;;;;;5074139;28;20080;-66
2021/12/23 04:03:14;;;;;;;15.40;11.65;;;;;;;;;;5071183;28;20044;-66
2021/12/23 04:05:41;;;;;;;24.58;12.20;;;;;;;;;;5074286;28;20124;-66
2021/12/23 04:08:07;;;;;;;17.85;11.00;;;;;;;;;;5073734;28;20052;-66
2021/12/23 04:10:33;;;;;;;15.95;11.07;;;;;;;;;;5073569;28;20074;-66
2021/12/23 04:13:00;;;;;;;16.83;11.00;;;;;;;;;;5070820;28;20700;-66
2021/12/23 04:15:27;;;;;;;16.85;11.73;;;;;;;;;;5073550;28;20043;-66
2021/12/23 04:17:54;;;;;;;16.50;11.85;;;;;;;;;;5070987;28;20733;-66
2021/12/23 04:20:23;;;;;;;18.80;11.48;;;;;;;;;;5072882;28;20529;-66
2021/12/23 04:22:53;;;;;;;18.92;11.25;;;;;;;;;;5073652;28;20067;-66
2021/12/23 04:25:21;;;;;;;17.58;12.15;;;;;;;;;;5071674;28;20036;-66
2021/12/23 04:27:49;;;;;;;15.82;10.35;;;;;;;;;;5066604;28;20072;-66
2021/12/23 04:30:15;;;;;;;22.33;11.88;;;;;;;;;;5071118;28;20336;-66
2021/12/23 04:32:42;;;;;;;17.98;10.35;;;;;;;;;;5070793;28;20050;-66
2021/12/23 04:35:08;;;;;;;22.55;13.85;;;;;;;;;;5074472;28;20052;-66
2021/12/23 04:37:34;;;;;;;22.38;13.00;;;;;;;;;;5073105;28;20402;-66
2021/12/23 04:40:01;;;;;;;19.95;12.05;;;;;;;;;;5067865;28;20479;-65
2021/12/23 04:42:27;;;;;;;19.60;11.73;;;;;;;;;;5071000;28;20111;-66
2021/12/23 04:44:53;;;;;;;20.40;12.70;;;;;;;;;;5066734;28;20040;-65
2021/12/23 04:47:19;;;;;;;17.92;11.48;;;;;;;;;;5068797;28;20045;-65
2021/12/23 04:49:45;;;;;;;21.17;12.48;;;;;;;;;;5072146;28;20040;-66
2021/12/23 04:52:12;;;;;;;19.38;12.70;;;;;;;;;;5068374;28;20029;-65
2021/12/23 04:54:38;;;;;;;20.83;11.75;;;;;;;;;;5069116;28;20033;-66
2021/12/23 04:57:04;;;;;;;17.17;11.48;;;;;;;;;;5068569;28;20041;-66
2021/12/23 04:59:30;;;;;;;21.70;12.43;;;;;;;;;;5068649;28;20037;-66
2021/12/23 05:01:56;;;;;;;18.92;10.68;;;;;;;;;;5053160;28;20048;-66
2021/12/23 05:04:22;;;;;;;19.88;12.32;;;;;;;;;;5067560;28;20120;-67
2021/12/23 05:06:49;;;;;;;16.58;13.02;;;;;;;;;;5069202;28;20044;-66
2021/12/23 05:09:15;;;;;;;19.48;12.82;;;;;;;;;;5071161;28;20067;-66
2021/12/23 05:11:41;;;;;;;19.33;13.50;;;;;;;;;;5035160;28;20052;-66
2021/12/23 05:14:07;;;;;;;16.65;11.88;;;;;;;;;;5067351;28;20037;-66
2021/12/23 05:16:33;;;;;;;17.35;13.18;;;;;;;;;;5066503;28;20041;-66
2021/12/23 05:18:59;;;;;;;23.27;13.55;;;;;;;;;;5067515;28;20235;-66
2021/12/23 05:21:25;;;;;;;19.17;12.73;;;;;;;;;;5056550;28;20047;-65
2021/12/23 05:23:52;;;;;;;22.20;13.35;;;;;;;;;;5069373;28;20087;-66
2021/12/23 05:26:18;;;;;;;19.25;13.05;;;;;;;;;;5066156;28;20080;-66
2021/12/23 05:28:44;;;;;;;19.73;12.20;;;;;;;;;;5062181;28;20490;-66
2021/12/23 05:31:10;;;;;;;19.38;13.13;;;;;;;;;;5070167;28;20044;-66
2021/12/23 05:33:37;;;;;;;19.23;11.57;;;;;;;;;;5065725;28;20050;-66
2021/12/23 05:36:04;;;;;;;20.27;12.23;;;;;;;;;;5071020;28;20064;-66
2021/12/23 05:38:30;;;;;;;22.65;14.30;;;;;;;;;;5069013;28;20048;-67
2021/12/23 05:40:56;;;;;;;23.15;13.30;;;;;;;;;;5057241;28;20690;-66
2021/12/23 05:43:22;;;;;;;24.65;13.57;;;;;;;;;;5069289;28;20101;-66
2021/12/23 05:45:49;;;;;;;19.42;12.73;;;;;;;;;;5069510;28;20041;-65
2021/12/23 05:48:15;;;;;;;17.70;11.40;;;;;;;;;;5061524;28;20051;-66
2021/12/23 05:50:41;;;;;;;20.67;12.52;;;;;;;;;;5069586;28;20041;-66
2021/12/23 05:53:07;;;;;;;24.23;13.90;;;;;;;;;;5063640;28;20036;-66
2021/12/23 05:55:33;;;;;;;19.90;11.95;;;;;;;;;;5066829;28;20037;-66
2021/12/23 05:58:00;;;;;;;21.30;13.05;;;;;;;;;;5049726;28;20528;-66
2021/12/23 06:00:27;;;;;;;22.95;14.10;;;;;;;;;;5065996;28;20044;-66
2021/12/23 06:02:54;;;;;;;21.60;12.95;;;;;;;;;;5066471;28;20642;-66
2021/12/23 06:05:20;;;;;;;22.52;14.52;;;;;;;;;;5069260;28;20120;-66
2021/12/23 06:07:47;;;;;;;21.88;13.77;;;;;;;;;;5064482;28;20040;-66
2021/12/23 06:10:14;;;;;;;19.13;12.88;;;;;;;;;;5068294;28;20028;-66
2021/12/23 06:12:40;;;;;;;19.67;12.95;;;;;;;;;;5067694;28;20486;-66
2021/12/23 06:15:07;;;;;;;23.23;15.00;;;;;;;;;;5066002;28;20040;-66
2021/12/23 06:17:33;;;;;;;22.42;13.32;;;;;;;;;;5067970;28;20044;-66
2021/12/23 06:19:59;;;;;;;22.60;13.43;;;;;;;;;;5068898;28;20068;-66
2021/12/23 06:22:26;;;;;;;23.10;13.43;;;;;;;;;;5066200;28;20497;-65
2021/12/23 06:24:52;;;;;;;20.13;13.82;;;;;;;;;;5069497;28;20430;-66
2021/12/23 06:27:19;;;;;;;19.02;12.90;;;;;;;;;;5067227;28;20037;-66
2021/12/23 06:29:45;;;;;;;22.90;13.98;;;;;;;;;;5066816;28;20055;-66
2021/12/23 06:32:11;;;;;;;22.92;14.70;;;;;;;;;;5070542;28;20041;-66
2021/12/23 06:34:37;;;;;;;22.73;13.73;;;;;;;;;;5061353;28;20276;-67
2021/12/23 06:37:04;;;;;;;21.35;15.02;;;;;;;;;;5062785;28;20044;-66
2021/12/23 06:39:31;;;;;;;23.38;13.38;;;;;;;;;;5061298;28;20565;-66
2021/12/23 06:41:57;;;;;;;22.45;14.25;;;;;;;;;;5064530;28;20062;-66
2021/12/23 06:44:24;;;;;;;27.10;15.18;;;;;;;;;;5061600;28;20076;-66
2021/12/23 06:46:50;;;;;;;24.27;14.55;;;;;;;;;;5062824;28;20039;-66
2021/12/23 06:49:16;;;;;;;24.70;14.98;;;;;;;;;;5056356;28;20040;-66
2021/12/23 06:51:44;;;;;;;23.95;14.70;;;;;;;;;;5053239;28;20127;-66
2021/12/23 06:54:13;;;;;;;24.27;14.57;;;;;;;;;;5075144;28;20179;-66
2021/12/23 06:56:39;;;;;;;21.58;14.80;;;;;;;;;;5059156;28;20052;-66
2021/12/23 06:59:06;;;;;;;23.83;14.95;;;;;;;;;;5057942;28;20044;-66
2021/12/23 07:01:32;;;;;;;28.27;14.70;;;;;;;;;;5063647;28;20453;-66
2021/12/23 07:06:32;;;;;;;24.42;15.82;;;;;;;;;;5093142;27;20041;-67
2021/12/23 07:08:59;;;;;;;23.15;14.73;;;;;;;;;;5057187;28;20562;-67
2021/12/23 07:11:26;;;;;;;23.95;15.10;;;;;;;;;;5057554;28;20029;-67
2021/12/23 07:13:52;;;;;;;28.15;15.57;;;;;;;;;;5057133;28;20037;-66
2021/12/23 07:16:18;;;;;;;25.25;15.48;;;;;;;;;;5067299;28;20080;-67
2021/12/23 07:18:44;;;;;;;24.30;15.73;;;;;;;;;;5048272;28;20433;-66
2021/12/23 07:21:10;;;;;;;21.27;14.85;;;;;;;;;;5069591;28;20055;-66
2021/12/23 07:23:36;;;;;;;23.50;15.00;;;;;;;;;;5066084;28;20063;-65
2021/12/23 07:26:02;;;;;;;28.80;16.13;;;;;;;;;;5050620;28;20059;-66
2021/12/23 07:28:28;;;;;;;25.30;14.95;;;;;;;;;;5078006;28;20037;-66
2021/12/23 07:30:55;;;;;;;22.85;15.18;;;;;;;;;;5096504;28;20032;-66
2021/12/23 07:33:22;;;;;;;25.83;15.23;;;;;;;;;;5042690;28;20094;-66
2021/12/23 07:35:48;;;;;;;23.23;16.17;;;;;;;;;;5045977;28;20052;-66
2021/12/23 07:38:15;;;;;;;27.35;15.95;;;;;;;;;;5056973;28;20040;-66
2021/12/23 07:40:41;;;;;;;24.17;14.57;;;;;;;;;;5056531;28;20044;-66
2021/12/23 07:43:31;;;;;;;24.05;14.82;;;;;;;;;;5061165;28;20057;-67
2021/12/23 07:45:57;;;;;;;24.35;16.13;;;;;;;;;;5060046;28;20123;-66
2021/12/23 07:48:24;;;;;;;25.90;16.13;;;;;;;;;;5062589;28;20056;-66
2021/12/23 07:50:50;;;;;;;22.42;15.80;;;;;;;;;;5046424;28;20040;-66
2021/12/23 07:53:16;;;;;;;26.85;16.50;;;;;;;;;;5089226;28;20033;-65
2021/12/23 07:55:43;;;;;;;27.25;15.23;;;;;;;;;;5059562;28;20044;-66
2021/12/23 07:58:10;;;;;;;24.95;16.85;;;;;;;;;;5066880;28;20050;-66
2021/12/23 08:00:36;;;;;;;26.35;16.73;;;;;;;;;;5063490;28;20037;-65
2021/12/23 08:03:02;;;;;;;30.40;19.27;;;;;;;;;;5061059;28;20041;-66
2021/12/23 08:05:31;;;;;;;24.40;16.25;;;;;;;;;;5065099;28;20115;-66
2021/12/23 08:07:57;;;;;;;23.65;15.98;;;;;;;;;;5066153;28;20084;-70
2021/12/23 08:10:23;;;;;;;24.00;15.07;;;;;;;;;;5066991;28;20044;-70
2021/12/23 08:12:50;;;;;;;33.72;18.33;;;;;;;;;;5069983;28;20052;-70
2021/12/23 08:15:16;;;;;;;25.25;15.27;;;;;;;;;;5062026;28;20072;-70
2021/12/23 08:17:42;;;;;;;24.83;17.95;;;;;;;;;;5073436;28;20594;-70
2021/12/23 08:20:09;;;;;;;26.25;17.05;;;;;;;;;;5069202;28;20036;-71
2021/12/23 08:22:35;;;;;;;26.13;16.83;;;;;;;;;;5077967;28;20041;-70
2021/12/23 08:25:01;;;;;;;34.28;20.08;;;;;;;;;;5074832;28;20050;-71
2021/12/23 08:27:29;;;;;;;35.70;19.95;;;;;;;;;;5072540;28;20044;-70
2021/12/23 08:29:55;;;;;;;30.45;18.20;;;;;;;;;;5074593;28;20510;-70
2021/12/23 08:32:22;;;;;;;32.22;19.92;;;;;;;;;;5072265;28;20066;-70
2021/12/23 08:34:48;;;;;;;27.23;18.50;;;;;;;;;;5068854;28;20036;-70
2021/12/23 08:37:15;;;;;;;34.13;19.67;;;;;;;;;;5063057;28;20428;-70
2021/12/23 08:39:41;;;;;;;29.58;19.50;;;;;;;;;;5072815;28;20429;-71
2021/12/23 08:42:08;;;;;;;37.17;21.08;;;;;;;;;;5053171;28;20056;-70
2021/12/23 08:44:34;;;;;;;35.17;22.35;;;;;;;;;;5075791;28;20040;-70
2021/12/23 08:47:00;;;;;;;30.83;18.63;;;;;;;;;;5067909;28;20123;-70
2021/12/23 08:49:27;;;;;;;33.92;21.80;;;;;;;;;;5072784;28;20041;-70
2021/12/23 08:51:53;;;;;;;35.05;21.75;;;;;;;;;;5071365;28;20490;-70
2021/12/23 08:54:20;;;;;;;34.10;21.67;;;;;;;;;;5072108;28;20665;-70
2021/12/23 08:56:46;;;;;;;45.08;22.25;;;;;;;;;;5073262;28;20098;-70
2021/12/23 08:59:12;;;;;;;35.55;22.63;;;;;;;;;;5054455;28;20044;-70
2021/12/23 09:01:42;;;;;;;36.70;24.88;;;;;;;;;;5104656;28;20028;-70
2021/12/23 09:04:08;;;;;;;34.25;22.58;;;;;;;;;;5069590;28;20082;-70
2021/12/23 09:06:34;;;;;;;38.90;23.30;;;;;;;;;;5077747;28;20047;-70
2021/12/23 09:09:00;;;;;;;31.08;20.98;;;;;;;;;;5072119;28;20037;-69
2021/12/23 09:11:27;;;;;;;37.45;22.45;;;;;;;;;;5071815;28;20062;-70
2021/12/23 09:13:53;;;;;;;39.22;24.85;;;;;;;;;;5072546;28;20036;-70
2021/12/23 09:16:19;;;;;;;44.13;23.35;;;;;;;;;;5067514;28;20045;-70
2021/12/23 09:18:46;;;;;;;40.42;24.63;;;;;;;;;;5096813;27;20040;-70
2021/12/23 09:21:14;;;;;;;48.53;26.33;;;;;;;;;;5067173;28;20402;-70
2021/12/23 09:23:40;;;;;;;42.85;25.08;;;;;;;;;;5070274;28;20058;-69
2021/12/23 09:26:10;;;;;;;48.92;24.90;;;;;;;;;;5069445;28;20123;-70
2021/12/23 09:29:03;;;;;;;42.28;24.67;;;;;;;;;;5072695;28;20045;-70
2021/12/23 09:34:14;;;;;;;39.63;25.17;;;;;;;;;;5069301;28;20064;-69
2021/12/23 09:36:41;;;;;;;47.78;27.70;;;;;;;;;;5067643;28;20072;-70
2021/12/23 09:39:09;;;;;;;54.30;28.77;;;;;;;;;;5063439;28;20045;-70
2021/12/23 09:41:37;;;;;;;47.40;28.60;;;;;;;;;;5065632;28;20063;-69
2021/12/23 09:44:05;;;;;;;51.38;29.65;;;;;;;;;;5076097;28;20106;-70
2021/12/23 09:46:34;;;;;;;64.45;31.15;;;;;;;;;;5049694;28;20037;-70
2021/12/23 09:49:01;;;;;;;55.17;31.02;;;;;;;;;;5068360;28;20098;-70
2021/12/23 09:51:29;;;;;;;54.25;31.38;;;;;;;;;;5073276;28;20037;-70
2021/12/23 09:54:16;;;;;;;56.33;30.95;;;;;;;;;;5067797;28;20043;-70
2021/12/23 09:56:42;;;;;;;51.78;30.73;;;;;;;;;;5072281;28;20048;-70
2021/12/23 09:59:09;;;;;;;58.72;31.00;;;;;;;;;;5077006;28;20036;-70
2021/12/23 10:01:35;;;;;;;59.75;33.80;;;;;;;;;;5073107;28;20077;-70
2021/12/23 10:04:02;;;;;;;55.55;31.83;;;;;;;;;;5068272;28;20045;-70
2021/12/23 10:06:28;;;;;;;63.20;36.22;;;;;;;;;;5068488;28;20036;-70
2021/12/23 10:08:55;;;;;;;51.85;31.88;;;;;;;;;;5069126;28;20410;-70
2021/12/23 10:11:31;;;;;;;64.10;33.83;;;;;;;;;;5075007;28;20049;-70
2021/12/23 10:33:44;;;;;;;61.50;36.03;;;;;;;;;;5068499;28;20044;-70
2021/12/23 10:38:46;;;;;;;80.85;38.63;;;;;;;;;;5065559;28;20036;-70
2021/12/23 10:41:15;;;;;;;61.92;34.00;;;;;;;;;;5069379;28;20040;-70
2021/12/23 10:43:42;;;;;;;78.32;37.42;;;;;;;;;;5071520;28;20044;-71
2021/12/23 10:46:14;;;;;;;69.22;35.70;;;;;;;;;;5072718;28;20044;-70
2021/12/23 10:48:45;;;;;;;74.95;36.53;;;;;;;;;;5066568;28;20045;-70
2021/12/23 10:51:16;;;;;;;75.85;36.45;;;;;;;;;;5065824;28;20032;-70
2021/12/23 10:59:17;;;;;;;65.88;33.80;;;;;;;;;;5054623;28;20041;-71
2021/12/23 11:02:03;;;;;;;62.75;33.88;;;;;;;;;;5094440;28;20072;-70
2021/12/23 11:04:34;;;;;;;63.38;34.00;;;;;;;;;;5075521;28;20523;-70
2021/12/23 11:07:17;;;;;;;62.60;36.30;;;;;;;;;;5068448;28;20040;-70
2021/12/23 11:10:00;;;;;;;66.35;36.30;;;;;;;;;;5047372;28;20081;-70
2021/12/23 11:35:44;;;;;;;60.70;34.80;;;;;;;;;;5032274;28;20100;-70
2021/12/23 11:37:57;;;;;;;61.85;34.65;;;;;;;;;;5069678;28;20091;-70
2021/12/23 11:40:50;;;;;;;65.75;38.42;;;;;;;;;;5068096;28;20040;-70
2021/12/23 11:45:50;;;;;;;60.63;35.97;;;;;;;;;;5073379;28;20083;-70
2021/12/23 11:48:17;;;;;;;65.32;37.97;;;;;;;;;;5064725;28;20127;-70
2021/12/23 11:53:28;;;;;;;65.65;36.20;;;;;;;;;;5061183;28;20047;-70
2021/12/23 11:55:55;;;;;;;63.47;35.85;;;;;;;;;;5074004;28;20040;-70
2021/12/23 11:58:23;;;;;;;65.70;35.53;;;;;;;;;;5072619;28;20185;-70
2021/12/23 12:01:03;;;;;;;64.38;36.90;;;;;;;;;;5073621;28;20039;-69
2021/12/23 12:10:20;;;;;;;68.90;34.00;;;;;;;;;;5070423;28;20082;-69
2021/12/23 12:13:24;;;;;;;69.60;38.80;;;;;;;;;;5069904;28;20215;-69
2021/12/23 12:15:52;;;;;;;65.25;35.03;;;;;;;;;;5074215;28;20123;-70
2021/12/23 12:18:21;;;;;;;63.72;36.72;;;;;;;;;;5066912;28;20087;-69
2021/12/23 12:20:54;;;;;;;66.43;34.67;;;;;;;;;;5071781;28;20048;-70
2021/12/23 12:23:22;;;;;;;68.13;39.28;;;;;;;;;;5070781;28;20068;-70
2021/12/23 12:25:53;;;;;;;55.15;33.72;;;;;;;;;;5072478;28;20040;-70
2021/12/23 12:28:30;;;;;;;74.43;37.53;;;;;;;;;;5077767;28;20044;-69
2021/12/23 12:31:01;;;;;;;68.20;36.90;;;;;;;;;;5066860;28;20048;-69
2021/12/23 12:33:27;;;;;;;66.32;37.17;;;;;;;;;;5064405;28;20573;-70
2021/12/23 12:36:05;;;;;;;74.55;35.47;;;;;;;;;;5068209;28;20087;-69
2021/12/23 12:38:32;;;;;;;66.28;35.95;;;;;;;;;;5104338;27;20124;-70
2021/12/23 12:41:04;;;;;;;63.60;38.15;;;;;;;;;;5072294;28;20055;-70
2021/12/23 12:43:46;;;;;;;76.22;39.72;;;;;;;;;;5073613;28;20060;-70
2021/12/23 12:46:14;;;;;;;61.05;32.35;;;;;;;;;;5071161;28;20044;-70
2021/12/23 12:48:56;;;;;;;67.95;35.72;;;;;;;;;;5073119;28;20127;-70
2021/12/23 12:51:24;;;;;;;57.15;33.35;;;;;;;;;;5074157;28;20036;-71
2021/12/23 12:54:04;;;;;;;70.15;37.90;;;;;;;;;;5072950;28;20036;-70
2021/12/23 12:56:35;;;;;;;68.65;36.55;;;;;;;;;;5076030;28;20101;-70
2021/12/23 12:59:01;;;;;;;73.82;38.78;;;;;;;;;;5074465;28;20040;-70
2021/12/23 13:01:37;;;;;;;76.45;40.53;;;;;;;;;;5075168;28;20082;-70
2021/12/23 13:04:05;;;;;;;71.95;36.20;;;;;;;;;;5071048;28;20131;-70
2021/12/23 13:06:38;;;;;;;70.53;37.25;;;;;;;;;;5069822;28;20040;-70
2021/12/23 13:09:05;;;;;;;73.28;39.38;;;;;;;;;;5072513;28;20044;-70
2021/12/23 13:11:32;;;;;;;71.47;39.50;;;;;;;;;;5071937;28;20085;-70
2021/12/23 13:14:01;;;;;;;68.75;40.08;;;;;;;;;;5075063;28;20505;-70
2021/12/23 13:16:28;;;;;;;72.57;39.63;;;;;;;;;;5073228;28;20704;-70
2021/12/23 13:19:13;;;;;;;68.82;35.30;;;;;;;;;;5070448;28;20055;-71
2021/12/23 13:21:44;;;;;;;69.20;37.60;;;;;;;;;;5073714;28;20055;-70
2021/12/23 13:24:13;;;;;;;72.28;37.72;;;;;;;;;;5070836;28;20056;-70
2021/12/23 13:26:40;;;;;;;74.95;37.00;;;;;;;;;;5098943;28;20049;-70
2021/12/23 13:29:08;;;;;;;64.70;34.25;;;;;;;;;;5074168;28;20436;-70
2021/12/23 13:31:35;;;;;;;76.70;37.00;;;;;;;;;;5104542;28;20043;-70
2021/12/23 13:34:03;;;;;;;68.03;33.92;;;;;;;;;;5074675;28;20048;-70
2021/12/23 13:36:32;;;;;;;64.57;34.80;;;;;;;;;;5066996;28;20047;-70
2021/12/23 13:39:03;;;;;;;63.92;36.72;;;;;;;;;;5070178;28;20056;-71
2021/12/23 13:41:29;;;;;;;65.93;33.20;;;;;;;;;;5070056;28;20979;-71
2021/12/23 13:44:00;;;;;;;63.47;36.20;;;;;;;;;;5082081;28;20044;-70
2021/12/23 13:46:27;;;;;;;65.57;35.53;;;;;;;;;;5073158;28;20217;-70
2021/12/23 13:48:58;;;;;;;63.65;35.60;;;;;;;;;;5072847;28;20041;-70
2021/12/23 13:51:27;;;;;;;75.78;39.45;;;;;;;;;;5069153;28;20071;-70
2021/12/23 13:54:04;;;;;;;69.07;38.47;;;;;;;;;;5067327;28;20043;-71
2021/12/23 13:56:31;;;;;;;71.72;39.50;;;;;;;;;;5064574;28;20028;-70
2021/12/23 13:59:14;;;;;;;78.00;40.58;;;;;;;;;;5072277;28;20048;-70
2021/12/23 14:01:52;;;;;;;68.53;37.60;;;;;;;;;;5071314;28;20545;-70
2021/12/23 14:04:39;;;;;;;84.28;39.40;;;;;;;;;;5060273;28;20044;-70
2021/12/23 14:07:16;;;;;;;78.47;37.20;;;;;;;;;;5069936;28;20045;-71
2021/12/23 14:09:50;;;;;;;81.80;38.50;;;;;;;;;;5071941;28;20048;-70
2021/12/23 14:12:19;;;;;;;68.88;39.65;;;;;;;;;;5071983;28;20040;-70
2021/12/23 14:14:54;;;;;;;74.15;37.75;;;;;;;;;;5069942;28;20120;-70
2021/12/23 14:17:28;;;;;;;71.35;39.67;;;;;;;;;;5074939;28;20110;-70
2021/12/23 14:25:32;;;;;;;78.70;37.72;;;;;;;;;;5105338;28;19968;-70
2021/12/23 14:27:59;;;;;;;78.03;40.25;;;;;;;;;;5073227;28;20445;-71
2021/12/23 14:30:35;;;;;;;87.15;41.88;;;;;;;;;;5071704;28;20036;-70
2021/12/23 14:33:09;;;;;;;83.93;42.33;;;;;;;;;;5067328;28;20110;-69
2021/12/23 14:35:35;;;;;;;79.18;43.88;;;;;;;;;;5070462;28;20041;-70
2021/12/23 14:38:02;;;;;;;77.32;41.25;;;;;;;;;;5067121;28;20398;-70
2021/12/23 14:40:28;;;;;;;81.60;41.40;;;;;;;;;;5079473;28;20119;-70
2021/12/23 14:42:59;;;;;;;82.72;39.15;;;;;;;;;;5072059;28;20055;-70
2021/12/23 14:45:25;;;;;;;74.50;39.10;;;;;;;;;;5071701;28;20048;-70
2021/12/23 14:48:08;;;;;;;76.10;42.20;;;;;;;;;;5066309;28;20041;-70
2021/12/23 14:50:49;;;;;;;79.93;41.22;;;;;;;;;;5068806;28;20036;-70
2021/12/23 14:53:20;;;;;;;83.38;42.72;;;;;;;;;;5061801;28;20041;-70
2021/12/23 14:55:56;;;;;;;80.05;42.78;;;;;;;;;;5072201;28;20433;-70
2021/12/23 14:58:23;;;;;;;93.45;44.30;;;;;;;;;;5070439;28;20047;-70
2021/12/23 15:00:49;;;;;;;92.00;45.92;;;;;;;;;;5070418;28;20394;-70
2021/12/23 15:03:18;;;;;;;98.70;46.30;;;;;;;;;;5075028;28;20044;-70
2021/12/23 15:05:46;;;;;;;87.03;47.30;;;;;;;;;;5069960;28;20055;-70
2021/12/23 15:08:23;;;;;;;84.45;45.58;;;;;;;;;;5059567;28;20036;-70
2021/12/23 15:10:55;;;;;;;103.25;45.38;;;;;;;;;;5080397;28;20066;-70
2021/12/23 15:13:22;;;;;;;;;;;;;;;;;;5064378;28;20041;-70
2021/12/23 15:15:56;;;;;;;75.15;39.85;;;;;;;;;;5067667;28;20294;-69
2021/12/23 15:18:30;;;;;;;101.40;47.90;;;;;;;;;;5071848;28;20091;-70
2021/12/23 15:20:57;;;;;;;79.93;43.22;;;;;;;;;;5070630;28;20522;-70
2021/12/23 15:23:44;;;;;;;106.82;51.55;;;;;;;;;;5071112;28;20033;-70
2021/12/23 15:26:42;;;;;;;104.22;49.65;;;;;;;;;;5071502;28;20487;-69
2021/12/23 15:29:13;;;;;;;111.95;51.00;;;;;;;;;;5055039;28;20095;-70
2021/12/23 15:31:39;;;;;;;105.00;51.45;;;;;;;;;;5067915;28;20052;-70
2021/12/23 15:34:09;;;;;;;111.18;50.60;;;;;;;;;;5053114;28;20502;-69
2021/12/23 15:36:37;;;;;;;95.47;48.67;;;;;;;;;;5109327;28;20113;-70
2021/12/23 15:39:13;;;;;;;101.97;51.92;;;;;;;;;;5074065;28;20116;-70
2021/12/23 15:41:41;;;;;;;116.20;53.03;;;;;;;;;;5074075;28;20044;-69
2021/12/23 15:44:07;;;;;;;119.72;53.88;;;;;;;;;;5071771;28;20463;-69
2021/12/23 15:46:33;;;;;;;109.78;54.50;;;;;;;;;;5067685;28;20067;-70
2021/12/23 15:48:59;;;;;;;118.95;52.13;;;;;;;;;;5063425;28;20068;-70